createdAt,value
2019-01-17T00:00:05.235Z,15.30
2019-01-17T00:03:00.814Z,19.23
2019-01-17T00:05:53.627Z,14.33
2019-01-17T00:08:48.389Z,13.50
2019-01-17T00:11:56.653Z,16.67
2019-01-17T00:14:34.757Z,18.80
2019-01-17T00:17:32.515Z,22.50
2019-01-17T00:20:21.226Z,16.00
2019-01-17T00:23:09.391Z,12.80
2019-01-17T00:25:54.717Z,19.47
2019-01-17T00:28:42.868Z,18.13
2019-01-17T00:31:32.625Z,17.87
2019-01-17T00:34:25.373Z,18.00
2019-01-17T00:37:15.172Z,18.43
2019-01-17T00:40:03.545Z,12.97
2019-01-17T00:42:53.316Z,12.60
2019-01-17T00:46:01.002Z,13.73
2019-01-17T00:48:44.683Z,14.87
2019-01-17T00:51:40.588Z,15.57
2019-01-17T00:54:39.304Z,13.87
2019-01-17T00:57:26.128Z,12.30
2019-01-17T01:00:24.761Z,11.80
2019-01-17T01:03:23.656Z,20.20
2019-01-17T01:06:13.685Z,12.33
2019-01-17T01:09:18.331Z,14.90
2019-01-17T01:12:00.572Z,11.30
2019-01-17T01:14:51.651Z,9.20
2019-01-17T01:17:44.504Z,12.07
2019-01-17T01:20:52.607Z,12.30
2019-01-17T01:23:45.579Z,13.73
2019-01-17T01:26:35.294Z,16.20
2019-01-17T01:29:23.538Z,10.73
2019-01-17T01:32:02.239Z,14.30
2019-01-17T01:35:06.859Z,11.53
2019-01-17T01:37:54.701Z,14.70
2019-01-17T01:40:41.069Z,9.30
2019-01-17T01:43:35.683Z,10.53
2019-01-17T01:46:37.436Z,12.27
2019-01-17T01:49:17.320Z,9.93
2019-01-17T01:51:54.021Z,11.30
2019-01-17T01:54:24.908Z,10.90
2019-01-17T01:56:55.821Z,9.40
2019-01-17T01:59:26.711Z,10.63
2019-01-17T02:01:57.604Z,11.53
2019-01-17T02:04:28.523Z,19.93
2019-01-17T02:06:59.702Z,11.50
2019-01-17T02:09:30.643Z,13.10
2019-01-17T02:12:01.625Z,13.30
2019-01-17T02:14:32.615Z,12.50
2019-01-17T02:17:03.995Z,15.83
2019-01-17T02:19:34.891Z,12.30
2019-01-17T02:22:05.899Z,9.90
2019-01-17T02:24:36.794Z,13.70
2019-01-17T02:27:07.701Z,11.67
2019-01-17T02:29:38.700Z,10.40
2019-01-17T02:32:09.586Z,8.47
2019-01-17T02:34:40.612Z,13.37
2019-01-17T02:37:11.533Z,10.37
2019-01-17T02:39:42.434Z,11.20
2019-01-17T02:42:13.368Z,11.90
2019-01-17T02:44:44.317Z,11.47
2019-01-17T02:47:15.265Z,8.83
2019-01-17T02:49:47.296Z,10.23
2019-01-17T02:52:18.508Z,9.40
2019-01-17T02:54:49.416Z,12.73
2019-01-17T02:57:20.340Z,9.97
2019-01-17T02:59:51.325Z,13.20
2019-01-17T03:02:22.203Z,13.87
2019-01-17T03:04:53.126Z,11.47
2019-01-17T03:07:24.011Z,17.40
2019-01-17T03:09:55.183Z,12.90
2019-01-17T03:12:26.332Z,15.40
2019-01-17T03:14:57.509Z,10.87
2019-01-17T03:17:28.411Z,14.60
2019-01-17T03:19:59.360Z,15.50
2019-01-17T03:22:30.370Z,14.47
2019-01-17T03:25:01.536Z,8.83
2019-01-17T03:27:32.473Z,10.97
2019-01-17T03:30:03.355Z,16.03
2019-01-17T03:32:34.314Z,15.07
2019-01-17T03:35:06.077Z,13.77
2019-01-17T03:37:37.250Z,12.43
2019-01-17T03:40:09.830Z,12.30
2019-01-17T03:42:40.786Z,15.13
2019-01-17T03:45:12.474Z,14.10
2019-01-17T03:47:44.355Z,12.80
2019-01-17T03:50:17.052Z,10.80
2019-01-17T03:52:47.998Z,12.70
2019-01-17T03:55:21.307Z,11.17
2019-01-17T03:57:52.265Z,12.83
2019-01-17T04:00:23.186Z,11.20
2019-01-17T04:02:54.112Z,10.33
2019-01-17T04:05:25.009Z,8.03
2019-01-17T04:07:56.562Z,11.60
2019-01-17T04:10:27.853Z,9.70
2019-01-17T04:12:59.124Z,9.57
2019-01-17T04:15:30.041Z,10.40
2019-01-17T04:18:00.984Z,7.50
2019-01-17T04:20:31.865Z,10.13
2019-01-17T04:23:02.738Z,11.57
2019-01-17T04:25:33.682Z,11.70
2019-01-17T04:28:04.654Z,6.73
2019-01-17T04:30:35.534Z,11.57
2019-01-17T04:33:06.840Z,9.33
2019-01-17T04:35:37.717Z,8.77
2019-01-17T04:38:08.981Z,7.57
2019-01-17T04:40:39.907Z,8.67
2019-01-17T04:43:10.770Z,9.53
2019-01-17T04:45:41.644Z,7.13
2019-01-17T04:48:12.592Z,8.37
2019-01-17T04:50:43.533Z,7.23
2019-01-17T04:53:14.400Z,8.83
2019-01-17T04:55:45.411Z,6.30
2019-01-17T04:58:16.285Z,6.70
2019-01-17T05:00:47.168Z,7.53
2019-01-17T05:03:18.084Z,9.87
2019-01-17T05:05:48.983Z,8.00
2019-01-17T05:08:19.943Z,9.17
2019-01-17T05:10:50.863Z,7.00
2019-01-17T05:13:21.737Z,12.00
2019-01-17T05:15:52.936Z,8.70
2019-01-17T05:18:24.959Z,10.40
2019-01-17T05:20:55.849Z,6.87
2019-01-17T05:23:26.753Z,7.70
2019-01-17T05:25:57.682Z,6.30
2019-01-17T05:28:28.557Z,6.60
2019-01-17T05:30:59.434Z,6.70
2019-01-17T05:33:30.352Z,6.30
2019-01-17T05:36:01.231Z,6.73
2019-01-17T05:38:32.109Z,6.53
2019-01-17T05:41:03.259Z,12.57
2019-01-17T05:43:34.142Z,5.77
2019-01-17T05:46:05.097Z,5.33
2019-01-17T05:48:36.020Z,8.07
2019-01-17T05:51:07.006Z,6.30
2019-01-17T05:53:37.879Z,4.27
2019-01-17T05:56:08.810Z,6.67
2019-01-17T05:58:39.993Z,7.60
2019-01-17T06:01:10.875Z,4.07
2019-01-17T06:03:41.794Z,7.33
2019-01-17T06:06:12.676Z,5.40
2019-01-17T06:08:43.546Z,12.97
2019-01-17T06:11:14.466Z,10.40
2019-01-17T06:13:45.340Z,9.03
2019-01-17T06:16:16.222Z,4.63
2019-01-17T06:18:47.151Z,4.47
2019-01-17T06:21:18.026Z,11.40
2019-01-17T06:23:48.995Z,4.97
2019-01-17T06:26:21.769Z,8.43
2019-01-17T06:28:52.812Z,7.30
2019-01-17T06:31:23.684Z,6.07
2019-01-17T06:33:54.606Z,7.87
2019-01-17T06:36:25.771Z,6.50
2019-01-17T06:38:57.716Z,5.17
2019-01-17T06:41:28.948Z,5.40
2019-01-17T06:43:59.823Z,6.43
2019-01-17T06:46:30.715Z,5.10
2019-01-17T06:49:01.649Z,8.43
2019-01-17T06:51:33.100Z,7.57
2019-01-17T06:54:03.979Z,6.87
2019-01-17T06:56:34.901Z,15.30
2019-01-17T06:59:05.780Z,4.80
2019-01-17T07:01:36.666Z,6.47
2019-01-17T07:04:07.603Z,6.10
2019-01-17T07:06:38.483Z,8.23
2019-01-17T07:09:13.592Z,8.07
2019-01-17T07:11:44.839Z,10.70
2019-01-17T07:14:15.703Z,6.23
2019-01-17T07:16:46.698Z,4.27
2019-01-17T07:19:18.475Z,6.90
2019-01-17T07:21:49.992Z,5.80
2019-01-17T07:24:21.493Z,4.73
2019-01-17T07:26:52.697Z,4.97
2019-01-17T07:29:24.674Z,7.40
2019-01-17T07:31:55.839Z,4.23
2019-01-17T07:34:26.759Z,5.63
2019-01-17T07:36:59.723Z,5.33
2019-01-17T07:39:30.661Z,6.73
2019-01-17T07:42:01.561Z,9.27
2019-01-17T07:44:32.450Z,10.93
2019-01-17T07:47:04.665Z,4.37
2019-01-17T07:49:35.819Z,7.00
2019-01-17T07:52:06.953Z,5.83
2019-01-17T07:54:37.832Z,5.40
2019-01-17T07:57:08.718Z,7.03
2019-01-17T07:59:39.933Z,11.83
2019-01-17T08:02:10.813Z,6.10
2019-01-17T08:04:42.223Z,8.10
2019-01-17T08:07:13.154Z,8.60
2019-01-17T08:09:44.052Z,9.67
2019-01-17T08:12:15.247Z,8.30
2019-01-17T08:14:46.149Z,5.80
2019-01-17T08:17:17.072Z,7.70
2019-01-17T08:19:47.952Z,5.97
2019-01-17T08:22:19.121Z,6.50
2019-01-17T08:24:50.631Z,6.27
2019-01-17T08:27:21.599Z,8.23
2019-01-17T08:29:52.515Z,7.23
2019-01-17T08:32:23.396Z,3.70
2019-01-17T08:34:54.265Z,9.20
2019-01-17T08:37:25.631Z,5.73
2019-01-17T08:39:56.807Z,6.53
2019-01-17T08:42:28.019Z,10.00
2019-01-17T08:44:58.919Z,8.03
2019-01-17T08:47:30.110Z,10.27
2019-01-17T08:50:01.025Z,9.23
2019-01-17T08:52:32.040Z,8.47
2019-01-17T08:55:03.245Z,7.30
2019-01-17T08:57:34.146Z,15.07
2019-01-17T09:00:06.319Z,8.37
2019-01-17T09:02:37.547Z,5.07
2019-01-17T09:05:09.866Z,11.27
2019-01-17T09:07:40.875Z,6.33
2019-01-17T09:10:16.385Z,4.00
2019-01-17T09:12:47.311Z,4.20
2019-01-17T09:15:20.262Z,8.40
2019-01-17T09:17:51.494Z,8.07
2019-01-17T09:20:22.702Z,6.33
2019-01-17T09:22:53.575Z,6.33
2019-01-17T09:25:24.496Z,8.83
2019-01-17T09:27:55.670Z,6.97
2019-01-17T09:30:26.725Z,6.70
2019-01-17T09:32:57.921Z,8.17
2019-01-17T09:35:28.807Z,7.23
2019-01-17T09:37:59.782Z,6.60
2019-01-17T09:40:30.698Z,6.70
2019-01-17T09:43:01.590Z,7.20
2019-01-17T09:45:32.570Z,9.00
2019-01-17T09:48:03.452Z,5.90
2019-01-17T09:50:34.385Z,11.53
2019-01-17T09:53:05.263Z,6.73
2019-01-17T09:55:36.175Z,15.43
2019-01-17T09:58:07.184Z,15.60
2019-01-17T10:00:38.070Z,9.13
2019-01-17T10:03:08.995Z,21.20
2019-01-17T10:05:39.894Z,10.37
2019-01-17T10:08:10.851Z,11.47
2019-01-17T10:10:41.761Z,10.90
2019-01-17T10:13:12.651Z,16.73
2019-01-17T10:15:59.179Z,10.87
2019-01-17T10:23:38.716Z,8.30
2019-01-17T10:27:04.680Z,11.07
2019-01-17T10:30:21.681Z,8.90
2019-01-17T10:33:33.582Z,12.30
2019-01-17T10:36:58.299Z,7.70
2019-01-17T10:40:28.697Z,18.57
2019-01-17T10:43:43.162Z,8.27
2019-01-17T10:47:28.887Z,9.93
2019-01-17T10:51:05.749Z,12.87
2019-01-17T10:54:05.776Z,7.63
2019-01-17T10:57:30.932Z,12.93
2019-01-17T11:00:38.290Z,9.47
2019-01-17T11:04:07.760Z,8.80
2019-01-17T11:08:02.809Z,14.13
2019-01-17T11:11:34.184Z,13.87
2019-01-17T11:15:11.814Z,12.23
2019-01-17T11:18:33.120Z,11.57
2019-01-17T11:22:11.466Z,10.07
2019-01-17T11:25:27.592Z,15.63
2019-01-17T11:28:25.090Z,12.53
2019-01-17T11:32:13.977Z,15.13
2019-01-17T11:35:45.621Z,9.60
2019-01-17T11:39:14.615Z,11.13
2019-01-17T11:42:32.891Z,11.87
2019-01-17T11:45:52.100Z,14.73
2019-01-17T11:49:15.683Z,12.77
2019-01-17T11:52:42.861Z,11.93
2019-01-17T11:55:58.132Z,14.10
2019-01-17T11:59:43.772Z,13.70
2019-01-17T12:03:10.682Z,12.70
2019-01-17T12:05:41.579Z,12.50
2019-01-17T12:08:12.465Z,12.47
2019-01-17T12:10:43.390Z,13.73
2019-01-17T12:13:17.516Z,15.30
2019-01-17T12:15:46.957Z,13.53
2019-01-17T12:18:17.937Z,13.60
2019-01-17T12:20:49.416Z,11.90
2019-01-17T12:23:20.363Z,14.70
2019-01-17T12:25:51.251Z,11.83
2019-01-17T12:28:22.145Z,14.70
2019-01-17T12:30:53.072Z,13.33
2019-01-17T12:33:24.286Z,19.50
2019-01-17T12:35:55.268Z,19.23
2019-01-17T12:38:26.753Z,11.53
2019-01-17T12:40:57.755Z,13.87
2019-01-17T12:43:28.623Z,10.53
2019-01-17T12:45:59.511Z,10.00
2019-01-17T12:48:30.420Z,9.97
2019-01-17T12:51:01.302Z,10.70
2019-01-17T12:53:32.333Z,10.43
2019-01-17T12:56:03.255Z,9.37
2019-01-17T12:58:34.211Z,9.37
2019-01-17T13:01:05.519Z,9.57
2019-01-17T13:03:36.407Z,16.23
2019-01-17T13:06:07.463Z,8.03
2019-01-17T13:08:38.349Z,8.93
2019-01-17T13:11:09.224Z,9.33
2019-01-17T13:13:40.455Z,11.83
2019-01-17T13:16:11.340Z,12.63
2019-01-17T13:18:42.290Z,6.43
2019-01-17T13:21:13.270Z,10.10
2019-01-17T13:23:44.159Z,9.10
2019-01-17T13:26:15.373Z,9.43
2019-01-17T13:28:46.377Z,10.73
2019-01-17T13:31:17.510Z,9.53
2019-01-17T13:33:48.460Z,15.53
2019-01-17T13:36:19.372Z,7.87
2019-01-17T13:38:50.415Z,15.00
2019-01-17T13:41:21.303Z,7.10
2019-01-17T13:43:52.236Z,8.27
2019-01-17T13:46:23.408Z,9.53
2019-01-17T13:48:54.303Z,6.40
2019-01-17T13:51:25.525Z,6.00
2019-01-17T13:53:56.466Z,5.10
2019-01-17T13:56:27.391Z,5.90
2019-01-17T13:58:58.264Z,6.03
2019-01-17T14:01:29.448Z,8.10
2019-01-17T14:04:00.391Z,6.53
2019-01-17T14:06:31.365Z,7.60
2019-01-17T14:09:02.295Z,14.80
2019-01-17T14:11:33.178Z,10.50
2019-01-17T14:14:04.225Z,5.10
2019-01-17T14:16:35.160Z,6.47
2019-01-17T14:19:06.043Z,8.10
2019-01-17T14:21:37.026Z,11.00
2019-01-17T14:24:08.191Z,6.33
2019-01-17T14:26:39.120Z,7.77
2019-01-17T14:29:10.044Z,10.23
2019-01-17T14:31:40.921Z,10.40
2019-01-17T14:34:11.855Z,7.20
2019-01-17T14:36:42.750Z,6.23
2019-01-17T14:39:13.648Z,5.97
2019-01-17T14:41:44.573Z,5.97
2019-01-17T14:44:15.449Z,7.13
2019-01-17T14:46:46.401Z,6.47
2019-01-17T14:49:17.297Z,3.93
2019-01-17T14:51:48.487Z,6.30
2019-01-17T14:54:19.403Z,3.43
2019-01-17T14:56:50.280Z,3.70
2019-01-17T14:59:21.221Z,3.10
2019-01-17T15:01:52.121Z,2.30
2019-01-17T15:04:23.092Z,2.50
2019-01-17T15:06:54.327Z,5.43
2019-01-17T15:09:25.216Z,4.60
2019-01-17T15:11:56.170Z,3.07
2019-01-17T15:14:27.056Z,3.10
2019-01-17T15:16:58.142Z,3.07
2019-01-17T15:19:29.094Z,3.37
2019-01-17T15:22:00.332Z,5.37
2019-01-17T15:24:31.210Z,4.93
2019-01-17T15:27:02.127Z,3.10
2019-01-17T15:29:33.297Z,7.03
2019-01-17T15:32:04.213Z,8.10
2019-01-17T15:34:35.148Z,6.97
2019-01-17T15:37:06.332Z,7.60
2019-01-17T15:39:37.263Z,6.17
2019-01-17T15:42:08.178Z,9.63
2019-01-17T15:44:39.076Z,5.57
2019-01-17T15:47:13.233Z,6.70
2019-01-17T15:49:42.667Z,6.43
2019-01-17T15:52:13.558Z,6.50
2019-01-17T15:54:44.514Z,6.70
2019-01-17T15:57:15.743Z,11.77
2019-01-17T15:59:46.614Z,6.50
2019-01-17T16:02:17.520Z,7.87
2019-01-17T16:04:48.396Z,6.97
2019-01-17T16:07:19.618Z,9.77
2019-01-17T16:09:50.495Z,8.97
2019-01-17T16:12:21.460Z,11.63
2019-01-17T16:14:52.392Z,10.90
2019-01-17T16:17:23.287Z,10.50
2019-01-17T16:19:54.218Z,11.07
2019-01-17T16:22:25.139Z,12.43
2019-01-17T16:24:56.086Z,13.23
2019-01-17T16:27:27.381Z,12.80
2019-01-17T16:30:00.551Z,12.30
2019-01-17T16:32:31.523Z,11.10
2019-01-17T16:35:02.409Z,12.77
2019-01-17T16:37:33.311Z,9.20
2019-01-17T16:40:04.433Z,9.83
2019-01-17T16:42:35.314Z,8.63
2019-01-17T16:45:07.895Z,8.40
2019-01-17T16:47:38.792Z,8.70
2019-01-17T16:50:17.952Z,6.30
2019-01-17T16:52:48.826Z,7.07
2019-01-17T16:55:19.734Z,8.27
2019-01-17T16:57:50.650Z,5.67
2019-01-17T17:00:38.295Z,7.23
2019-01-17T17:03:09.244Z,7.40
2019-01-17T17:05:40.421Z,13.47
2019-01-17T17:08:11.551Z,9.27
2019-01-17T17:10:42.749Z,6.83
2019-01-17T17:13:14.968Z,6.10
2019-01-17T17:15:45.968Z,9.43
2019-01-17T17:18:16.894Z,6.50
2019-01-17T17:20:47.827Z,7.63
2019-01-17T17:23:18.815Z,5.37
2019-01-17T17:25:49.764Z,8.63
2019-01-17T17:28:20.999Z,5.30
2019-01-17T17:30:53.184Z,6.67
2019-01-17T17:33:24.105Z,5.40
2019-01-17T17:35:55.012Z,7.30
2019-01-17T17:38:26.211Z,8.63
2019-01-17T17:40:57.227Z,9.07
2019-01-17T17:43:28.258Z,4.60
2019-01-17T17:46:01.156Z,4.80
2019-01-17T17:48:32.059Z,6.37
2019-01-17T17:51:03.234Z,3.60
2019-01-17T17:53:34.239Z,4.73
2019-01-17T17:56:05.308Z,7.43
2019-01-17T17:58:36.243Z,4.57
2019-01-17T18:01:22.608Z,7.70
2019-01-17T18:03:53.863Z,3.97
2019-01-17T18:06:25.112Z,2.80
2019-01-17T18:08:56.024Z,7.73
2019-01-17T18:11:26.971Z,3.13
2019-01-17T18:13:57.858Z,2.33
2019-01-17T18:16:28.818Z,5.07
2019-01-17T18:18:59.777Z,3.70
2019-01-17T18:21:30.968Z,5.40
2019-01-17T18:24:01.880Z,7.47
2019-01-17T18:26:32.797Z,6.17
2019-01-17T18:29:03.761Z,15.20
2019-01-17T18:31:34.641Z,11.53
2019-01-17T18:34:08.068Z,7.20
2019-01-17T18:36:39.264Z,5.00
2019-01-17T18:39:13.994Z,4.53
2019-01-17T18:41:45.609Z,12.80
2019-01-17T18:44:17.354Z,7.60
2019-01-17T18:46:48.387Z,10.83
2019-01-17T18:49:19.277Z,8.40
2019-01-17T18:51:51.144Z,6.80
2019-01-17T18:54:22.057Z,2.43
2019-01-17T18:56:53.020Z,5.07
2019-01-17T18:59:24.250Z,6.03
2019-01-17T19:01:55.436Z,2.13
2019-01-17T19:04:26.672Z,5.63
2019-01-17T19:06:57.587Z,6.70
2019-01-17T19:09:29.453Z,3.77
2019-01-17T19:12:02.834Z,6.23
2019-01-17T19:14:38.934Z,2.60
2019-01-17T19:17:11.658Z,2.90
2019-01-17T19:19:44.896Z,2.33
2019-01-17T19:22:15.804Z,6.53
2019-01-17T19:24:48.974Z,1.90
2019-01-17T19:27:19.849Z,4.53
2019-01-17T19:29:51.371Z,3.10
2019-01-17T19:32:22.260Z,6.03
2019-01-17T19:34:55.876Z,5.10
2019-01-17T19:37:27.075Z,6.10
2019-01-17T19:39:58.056Z,5.30
2019-01-17T19:42:29.017Z,5.60
2019-01-17T19:44:59.926Z,13.00
2019-01-17T19:47:31.198Z,7.60
2019-01-17T19:50:02.689Z,12.90
2019-01-17T19:52:33.585Z,5.90
2019-01-17T19:55:05.407Z,8.20
2019-01-17T19:57:36.588Z,6.27
2019-01-17T20:00:10.523Z,8.43
2019-01-17T20:02:41.989Z,9.30
2019-01-17T20:05:15.354Z,10.63
2019-01-17T20:07:46.443Z,5.93
2019-01-17T20:10:25.841Z,11.10
2019-01-17T20:12:56.972Z,17.53
2019-01-17T20:15:27.993Z,12.80
2019-01-17T20:18:00.299Z,9.93
2019-01-17T20:20:33.977Z,7.20
2019-01-17T20:23:05.932Z,7.90
2019-01-17T20:25:37.308Z,11.63
2019-01-17T20:28:08.496Z,9.90
2019-01-17T20:30:39.691Z,10.50
2019-01-17T20:33:11.016Z,15.50
2019-01-17T20:35:41.972Z,10.33
2019-01-17T20:38:13.219Z,6.77
2019-01-17T20:40:44.103Z,7.73
2019-01-17T20:43:16.453Z,7.40
2019-01-17T20:45:47.365Z,4.30
2019-01-17T20:48:18.399Z,6.40
2019-01-17T20:50:50.941Z,8.90
2019-01-17T20:53:22.689Z,7.97
2019-01-17T20:55:54.383Z,7.87
2019-01-17T20:58:26.227Z,7.10
2019-01-17T21:02:16.679Z,5.90
2019-01-17T21:04:47.851Z,5.93
2019-01-17T21:07:19.319Z,6.93
2019-01-17T21:09:50.256Z,3.53
2019-01-17T21:12:21.164Z,10.00
2019-01-17T21:14:52.078Z,5.07
2019-01-17T21:17:23.304Z,5.97
2019-01-17T21:19:56.775Z,5.80
2019-01-17T21:22:27.972Z,7.07
2019-01-17T21:24:59.228Z,3.83
2019-01-17T21:27:30.129Z,7.03
2019-01-17T21:30:01.998Z,3.73
2019-01-17T21:32:33.267Z,3.00
2019-01-17T21:35:04.660Z,5.23
2019-01-17T21:37:35.558Z,3.43
2019-01-17T21:40:09.219Z,5.50
2019-01-17T21:42:40.223Z,7.50
2019-01-17T21:45:14.742Z,5.50
2019-01-17T21:47:46.021Z,6.47
2019-01-17T21:50:20.975Z,8.00
2019-01-17T21:52:51.950Z,12.10
2019-01-17T21:55:22.850Z,4.40
2019-01-17T21:57:53.855Z,8.00
2019-01-17T22:00:26.640Z,6.87
2019-01-17T22:02:57.792Z,11.97
2019-01-17T22:05:28.983Z,17.97
2019-01-17T22:08:00.165Z,6.97
2019-01-17T22:10:31.118Z,10.97
2019-01-17T22:13:02.009Z,6.37
2019-01-17T22:15:32.895Z,8.33
2019-01-17T22:18:04.118Z,4.50
2019-01-17T22:20:35.017Z,6.80
2019-01-17T22:23:05.894Z,7.90
2019-01-17T22:25:36.824Z,11.83
2019-01-17T22:28:08.009Z,9.77
2019-01-17T22:30:39.300Z,9.40
2019-01-17T22:33:10.521Z,4.80
2019-01-17T22:35:41.507Z,4.50
2019-01-17T22:38:12.426Z,17.40
2019-01-17T22:40:43.641Z,8.47
2019-01-17T22:43:14.521Z,14.40
2019-01-17T22:45:45.414Z,5.93
2019-01-17T22:48:16.645Z,8.77
2019-01-17T22:50:47.630Z,4.10
2019-01-17T22:53:18.508Z,6.17
2019-01-17T22:55:49.742Z,4.63
2019-01-17T22:58:20.632Z,3.97
2019-01-17T23:01:24.683Z,6.80
2019-01-17T23:03:57.283Z,2.63
2019-01-17T23:06:28.168Z,3.83
2019-01-17T23:08:59.099Z,7.70
2019-01-17T23:11:29.981Z,6.70
2019-01-17T23:14:00.871Z,7.47
2019-01-17T23:16:31.821Z,7.83
2019-01-17T23:19:02.782Z,4.50
2019-01-17T23:21:33.671Z,2.97
2019-01-17T23:24:04.815Z,9.53
2019-01-17T23:26:35.721Z,5.43
2019-01-17T23:29:07.014Z,9.60
2019-01-17T23:31:37.945Z,5.43
2019-01-17T23:34:08.838Z,4.10
2019-01-17T23:36:39.759Z,2.93
2019-01-17T23:39:12.258Z,7.10
2019-01-17T23:41:43.151Z,2.53
2019-01-17T23:44:14.119Z,2.53
2019-01-17T23:46:45.057Z,3.30
2019-01-17T23:49:15.940Z,5.90
2019-01-17T23:51:46.817Z,4.70
2019-01-17T23:54:18.057Z,1.93
2019-01-17T23:56:48.926Z,1.40
2019-01-17T23:59:22.782Z,2.80
